createdAt,value
2017-12-01T00:07:31.000Z,16.7
2017-12-01T00:17:31.000Z,16.3
2017-12-01T00:27:31.000Z,16.2
2017-12-01T00:37:33.000Z,16.1
2017-12-01T00:47:31.000Z,16
2017-12-01T00:57:31.000Z,15.9
2017-12-01T01:07:31.000Z,15.9
2017-12-01T01:17:31.000Z,15.7
2017-12-01T01:27:31.000Z,15.7
2017-12-01T01:37:31.000Z,15.5
2017-12-01T01:47:31.000Z,15.4
2017-12-01T01:57:31.000Z,15.3
2017-12-01T02:07:31.000Z,15.3
2017-12-01T02:17:31.000Z,15.3
2017-12-01T02:27:31.000Z,15.2
2017-12-01T02:37:33.000Z,15.1
2017-12-01T02:47:32.000Z,15.2
2017-12-01T02:57:32.000Z,15.2
2017-12-01T03:07:32.000Z,15
2017-12-01T03:17:32.000Z,15.1
2017-12-01T03:27:32.000Z,15.1
2017-12-01T03:37:33.000Z,15
2017-12-01T03:47:32.000Z,14.9
2017-12-01T03:57:32.000Z,15
2017-12-01T04:07:32.000Z,15
2017-12-01T04:17:32.000Z,15
2017-12-01T04:27:32.000Z,15
2017-12-01T04:37:32.000Z,15
2017-12-01T04:47:32.000Z,15.1
2017-12-01T04:57:32.000Z,15.1
2017-12-01T05:07:32.000Z,14.9
2017-12-01T05:17:32.000Z,15
2017-12-01T05:27:32.000Z,15
2017-12-01T05:37:32.000Z,14.8
2017-12-01T05:47:32.000Z,15.4
2017-12-01T05:57:32.000Z,16.9
2017-12-01T06:07:32.000Z,17.7
2017-12-01T06:17:32.000Z,18.1
2017-12-01T06:27:32.000Z,18.5
2017-12-01T06:37:32.000Z,18.7
2017-12-01T06:47:32.000Z,18.9
2017-12-01T06:57:32.000Z,19
2017-12-01T07:07:33.000Z,19.1
2017-12-01T07:17:32.000Z,19.2
2017-12-01T07:27:32.000Z,19.2
2017-12-01T07:37:32.000Z,19.3
2017-12-01T07:47:32.000Z,19.4
2017-12-01T07:57:32.000Z,19.5
2017-12-01T08:07:32.000Z,19.5
2017-12-01T08:17:32.000Z,19.5
2017-12-01T08:27:32.000Z,19.6
2017-12-01T08:37:32.000Z,19.6
2017-12-01T08:47:32.000Z,19.6
2017-12-01T08:57:32.000Z,19.6
2017-12-01T09:07:32.000Z,19.5
2017-12-01T09:17:32.000Z,19.7
2017-12-01T09:27:32.000Z,19.7
2017-12-01T09:37:32.000Z,19.5
2017-12-01T09:47:32.000Z,19.6
2017-12-01T09:57:32.000Z,19.8
2017-12-01T10:07:33.000Z,19.8
2017-12-01T10:17:33.000Z,19.8
2017-12-01T10:27:33.000Z,19.8
2017-12-01T10:37:33.000Z,19.8
2017-12-01T10:47:33.000Z,19.9
2017-12-01T10:57:33.000Z,19.9
2017-12-01T11:07:33.000Z,20.1
2017-12-01T11:17:33.000Z,20.1
2017-12-01T11:27:33.000Z,20
2017-12-01T11:37:33.000Z,20.1
2017-12-01T11:47:33.000Z,20.1
2017-12-01T11:57:33.000Z,20.3
2017-12-01T12:07:33.000Z,20.2
2017-12-01T12:17:33.000Z,20.3
2017-12-01T12:27:33.000Z,20.4
2017-12-01T12:37:33.000Z,20.2
2017-12-01T12:47:33.000Z,20.3
2017-12-01T12:57:33.000Z,20.3
2017-12-01T13:07:33.000Z,20.4
2017-12-01T13:17:33.000Z,20.4
2017-12-01T13:27:33.000Z,20.3
2017-12-01T13:37:33.000Z,20.4
2017-12-01T13:47:33.000Z,20.4
2017-12-01T13:57:33.000Z,20.4
2017-12-01T14:07:33.000Z,20.3
2017-12-01T14:17:33.000Z,20.4
2017-12-01T14:27:34.000Z,20.4
2017-12-01T14:37:33.000Z,20.4
2017-12-01T14:47:33.000Z,20.4
2017-12-01T14:57:33.000Z,20.4
2017-12-01T15:07:33.000Z,20.4
2017-12-01T15:17:33.000Z,20.4
2017-12-01T15:27:33.000Z,20.4
2017-12-01T15:37:33.000Z,20.4
2017-12-01T15:47:33.000Z,20.4
2017-12-01T15:57:33.000Z,20.4
2017-12-01T16:07:33.000Z,20.4
2017-12-01T16:17:33.000Z,20.4
2017-12-01T16:27:33.000Z,20.4
2017-12-01T16:37:34.000Z,20.3
2017-12-01T16:47:33.000Z,20.4
2017-12-01T16:57:34.000Z,20.4
2017-12-01T17:07:34.000Z,20.4
2017-12-01T17:17:34.000Z,20.5
2017-12-01T17:27:34.000Z,20.5
2017-12-01T17:37:34.000Z,20.5
2017-12-01T17:47:34.000Z,20.5
2017-12-01T17:57:34.000Z,20.4
2017-12-01T18:07:34.000Z,20.5
2017-12-01T18:17:34.000Z,20.5
2017-12-01T18:27:34.000Z,20.5
2017-12-01T18:37:34.000Z,20.5
2017-12-01T18:47:34.000Z,20.5
2017-12-01T18:57:34.000Z,20.6
2017-12-01T19:07:34.000Z,20.6
2017-12-01T19:17:34.000Z,20.7
2017-12-01T19:27:34.000Z,20.6
2017-12-01T19:37:34.000Z,20.6
2017-12-01T19:47:34.000Z,20.7
2017-12-01T19:57:34.000Z,20.6
2017-12-01T20:07:34.000Z,20.7
2017-12-01T20:17:34.000Z,20.6
2017-12-01T20:27:34.000Z,20.7
2017-12-01T20:37:34.000Z,20.7
2017-12-01T20:47:37.000Z,20.7
2017-12-01T20:57:34.000Z,20.7
2017-12-01T21:07:34.000Z,20.7
2017-12-01T21:17:34.000Z,20.7
2017-12-01T21:27:34.000Z,20.7
2017-12-01T21:37:34.000Z,20.7
2017-12-01T21:47:34.000Z,20.7
2017-12-01T21:57:34.000Z,20.7
2017-12-01T22:07:34.000Z,20.8
2017-12-01T22:17:34.000Z,20.8
2017-12-01T22:27:34.000Z,20.8
2017-12-01T22:37:34.000Z,20.8
2017-12-01T22:47:34.000Z,20.8
2017-12-01T22:57:34.000Z,20.8
2017-12-01T23:07:34.000Z,20.8
2017-12-01T23:17:34.000Z,19.6
2017-12-01T23:27:34.000Z,17.8
2017-12-01T23:37:34.000Z,16.8
2017-12-01T23:47:34.000Z,16.3
2017-12-01T23:57:35.000Z,16.1
